Terminal Aerodrome Forecast
Issued by NWS

Home | Current Version | Previous Version | Text Only | Print | Product List | Glossary On
Versions: 1 2 3 4 5 6 7 8 9 10 11 12 13 14 15 16 17 18
000
FTUS41 KCLE 192000 AAA
TAFFDY
TAF AMD
KFDY 192100Z 1921/2018 12015G30KT 3SM -SHRA BR OVC035
     FM192300 13015G25KT 3SM -SHRA BR OVC025
     FM200000 12020G34KT 2SM -SHRA BR SCT006 OVC012
     FM200400 19018G26KT P6SM SCT012 OVC035
     FM201600 23020G30KT P6SM OVC035=

USA.gov is the U.S. government's official web portal to all federal, state and local government web resources and services.